createdAt,value
2022-10-26T00:00:15.091Z,89
2022-10-26T00:05:15.107Z,89
2022-10-26T00:10:15.098Z,89
2022-10-26T00:15:15.100Z,89
2022-10-26T00:20:15.098Z,89
2022-10-26T00:25:15.100Z,89
2022-10-26T00:30:15.100Z,89
2022-10-26T00:35:21.135Z,89
2022-10-26T00:40:15.093Z,89
2022-10-26T00:45:15.089Z,89
2022-10-26T00:50:15.091Z,89
2022-10-26T00:55:15.097Z,89
2022-10-26T01:00:15.091Z,89
2022-10-26T01:05:15.108Z,89
2022-10-26T01:10:15.099Z,89
2022-10-26T01:15:15.091Z,89
2022-10-26T01:20:15.088Z,89
2022-10-26T01:25:15.092Z,89
2022-10-26T01:30:15.097Z,89
2022-10-26T01:35:15.098Z,89
2022-10-26T01:40:15.083Z,89
2022-10-26T01:45:15.089Z,89
2022-10-26T01:50:15.098Z,89
2022-10-26T01:55:15.095Z,89
2022-10-26T02:00:15.086Z,89
2022-10-26T02:05:15.102Z,89
2022-10-26T02:10:15.089Z,88
2022-10-26T02:15:15.100Z,88
2022-10-26T02:20:15.103Z,88
2022-10-26T02:25:15.093Z,88
2022-10-26T02:30:15.089Z,88
2022-10-26T02:35:15.098Z,88
2022-10-26T02:40:15.103Z,88
2022-10-26T02:45:15.097Z,88
2022-10-26T02:50:15.097Z,88
2022-10-26T02:55:15.102Z,88
2022-10-26T03:00:15.097Z,88
2022-10-26T03:05:15.099Z,88
2022-10-26T03:10:15.097Z,88
2022-10-26T03:15:15.093Z,88
2022-10-26T03:20:15.095Z,88
2022-10-26T03:25:15.095Z,88
2022-10-26T03:30:15.093Z,88
2022-10-26T03:35:15.112Z,88
2022-10-26T03:40:15.089Z,88
2022-10-26T03:45:15.105Z,87
2022-10-26T03:50:15.096Z,87
2022-10-26T03:55:15.101Z,87
2022-10-26T04:00:15.090Z,87
2022-10-26T04:05:15.099Z,87
2022-10-26T04:10:15.099Z,87
2022-10-26T04:15:15.091Z,87
2022-10-26T04:20:15.094Z,87
2022-10-26T04:25:15.093Z,87
2022-10-26T04:30:15.084Z,87
2022-10-26T04:35:15.461Z,87
2022-10-26T04:40:15.089Z,87
2022-10-26T04:45:15.089Z,87
2022-10-26T04:50:15.096Z,87
2022-10-26T04:55:15.096Z,87
2022-10-26T05:00:15.088Z,87
2022-10-26T05:05:15.264Z,87
2022-10-26T05:10:15.086Z,87
2022-10-26T05:15:15.102Z,87
2022-10-26T05:20:15.088Z,87
2022-10-26T05:25:15.090Z,87
2022-10-26T05:30:15.109Z,87
2022-10-26T05:35:15.114Z,87
2022-10-26T05:40:15.098Z,87
2022-10-26T05:45:15.096Z,87
2022-10-26T05:50:15.114Z,88
2022-10-26T05:55:15.107Z,88
2022-10-26T06:00:15.094Z,88
2022-10-26T06:05:15.090Z,88
2022-10-26T06:10:15.095Z,88
2022-10-26T06:15:15.109Z,88
2022-10-26T06:20:15.114Z,88
2022-10-26T06:25:15.107Z,88
2022-10-26T06:30:15.101Z,88
2022-10-26T06:35:15.092Z,88
2022-10-26T06:40:15.109Z,88
2022-10-26T06:50:15.089Z,88
2022-10-26T06:55:15.087Z,88
2022-10-26T07:00:15.185Z,87
2022-10-26T07:05:15.101Z,87
2022-10-26T07:10:15.099Z,87
2022-10-26T07:15:15.094Z,87
2022-10-26T07:20:15.099Z,87
2022-10-26T07:25:15.108Z,87
2022-10-26T07:30:15.099Z,87
2022-10-26T07:35:15.088Z,87
2022-10-26T07:40:15.158Z,87
2022-10-26T07:45:15.094Z,87
2022-10-26T07:50:15.090Z,87
2022-10-26T07:55:15.106Z,87
2022-10-26T08:00:15.094Z,87
2022-10-26T08:05:15.089Z,87
2022-10-26T08:10:15.086Z,87
2022-10-26T08:15:15.106Z,87
2022-10-26T08:20:15.090Z,87
2022-10-26T08:25:16.330Z,86
2022-10-26T08:30:15.094Z,86
2022-10-26T08:35:15.094Z,87
2022-10-26T08:40:15.089Z,86
2022-10-26T08:45:15.094Z,86
2022-10-26T08:50:15.088Z,86
2022-10-26T08:55:15.116Z,86
2022-10-26T09:00:15.086Z,85
2022-10-26T09:05:15.109Z,85
2022-10-26T09:10:15.125Z,85
2022-10-26T09:15:15.105Z,85
2022-10-26T09:20:15.091Z,84
2022-10-26T09:25:15.097Z,84
2022-10-26T09:30:15.099Z,81
2022-10-26T09:35:15.171Z,80
2022-10-26T09:40:15.090Z,80
2022-10-26T09:45:15.108Z,77
2022-10-26T09:50:15.091Z,77
2022-10-26T09:55:15.118Z,77
2022-10-26T10:00:15.091Z,77
2022-10-26T10:05:22.968Z,79
2022-10-26T10:10:15.104Z,80
2022-10-26T10:15:15.095Z,81
2022-10-26T10:20:15.095Z,81
2022-10-26T10:25:15.102Z,81
2022-10-26T10:30:15.090Z,80
2022-10-26T10:35:15.093Z,80
2022-10-26T10:40:16.624Z,80
2022-10-26T10:45:15.091Z,80
2022-10-26T10:50:15.196Z,80
2022-10-26T10:55:15.096Z,79
2022-10-26T11:00:15.212Z,80
2022-10-26T11:05:15.094Z,79
2022-10-26T11:10:15.134Z,79
2022-10-26T11:15:15.097Z,79
2022-10-26T11:20:15.285Z,79
2022-10-26T11:25:15.099Z,77
2022-10-26T11:30:15.297Z,77
2022-10-26T11:35:15.103Z,77
2022-10-26T11:40:15.095Z,75
2022-10-26T11:45:15.102Z,74
2022-10-26T11:50:16.369Z,74
2022-10-26T11:55:15.097Z,73
2022-10-26T12:00:15.095Z,73
2022-10-26T12:05:15.106Z,74
2022-10-26T12:10:15.089Z,73
2022-10-26T12:15:15.100Z,73
2022-10-26T12:20:15.095Z,73
2022-10-26T12:25:15.595Z,73
2022-10-26T12:30:15.106Z,73
2022-10-26T12:35:15.105Z,73
2022-10-26T12:40:15.106Z,72
2022-10-26T12:45:15.099Z,72
2022-10-26T12:50:15.110Z,71
2022-10-26T12:55:15.123Z,71
2022-10-26T13:00:15.108Z,71
2022-10-26T13:05:15.106Z,69
2022-10-26T13:10:15.113Z,69
2022-10-26T13:15:15.139Z,69
2022-10-26T13:20:15.111Z,69
2022-10-26T13:25:15.101Z,69
2022-10-26T13:30:15.098Z,69
2022-10-26T13:35:15.104Z,70
2022-10-26T13:40:15.104Z,70
2022-10-26T13:45:15.090Z,70
2022-10-26T13:50:15.111Z,69
2022-10-26T13:55:15.116Z,68
2022-10-26T14:00:15.099Z,68
2022-10-26T14:05:15.104Z,68
2022-10-26T14:10:15.105Z,69
2022-10-26T14:15:15.095Z,70
2022-10-26T14:20:15.253Z,70
2022-10-26T14:25:15.109Z,70
2022-10-26T14:30:22.324Z,70
2022-10-26T14:35:15.095Z,71
2022-10-26T14:40:15.084Z,72
2022-10-26T14:45:15.278Z,72
2022-10-26T14:50:15.089Z,72
2022-10-26T14:55:15.111Z,72
2022-10-26T15:00:15.092Z,74
2022-10-26T15:05:15.098Z,73
2022-10-26T15:10:15.083Z,74
2022-10-26T15:15:15.197Z,74
2022-10-26T15:20:15.110Z,75
2022-10-26T15:25:15.100Z,75
2022-10-26T15:30:15.101Z,74
2022-10-26T15:35:15.113Z,74
2022-10-26T15:40:15.178Z,74
2022-10-26T15:45:15.115Z,74
2022-10-26T15:50:15.082Z,74
2022-10-26T15:55:15.091Z,73
2022-10-26T16:00:15.097Z,73
2022-10-26T16:05:15.089Z,74
2022-10-26T16:10:15.093Z,74
2022-10-26T16:15:15.100Z,75
2022-10-26T16:20:15.089Z,76
2022-10-26T16:25:15.096Z,75
2022-10-26T16:30:15.090Z,75
2022-10-26T16:35:15.097Z,76
2022-10-26T16:40:15.099Z,76
2022-10-26T16:45:15.112Z,76
2022-10-26T16:50:15.088Z,76
2022-10-26T16:55:15.097Z,77
2022-10-26T17:00:15.094Z,78
2022-10-26T17:05:15.104Z,78
2022-10-26T17:10:15.105Z,78
2022-10-26T17:15:15.989Z,79
2022-10-26T17:20:15.085Z,79
2022-10-26T17:25:15.100Z,79
2022-10-26T17:30:15.099Z,79
2022-10-26T17:35:15.091Z,79
2022-10-26T17:40:15.093Z,80
2022-10-26T17:45:15.097Z,81
2022-10-26T17:50:15.090Z,81
2022-10-26T17:55:15.092Z,80
2022-10-26T18:00:15.094Z,80
2022-10-26T18:05:15.097Z,80
2022-10-26T18:10:33.057Z,80
2022-10-26T18:15:15.096Z,80
2022-10-26T18:20:15.098Z,79
2022-10-26T18:25:15.104Z,79
2022-10-26T18:30:15.089Z,79
2022-10-26T18:35:15.093Z,79
2022-10-26T18:40:15.095Z,79
2022-10-26T18:45:15.124Z,79
2022-10-26T18:50:15.099Z,79
2022-10-26T18:55:15.098Z,79
2022-10-26T19:00:15.088Z,79
2022-10-26T19:05:15.088Z,79
2022-10-26T19:10:15.089Z,80
2022-10-26T19:15:15.090Z,80
2022-10-26T19:20:15.086Z,82
2022-10-26T19:25:15.103Z,83
2022-10-26T19:30:15.092Z,83
2022-10-26T19:35:15.096Z,82
2022-10-26T19:40:15.093Z,82
2022-10-26T19:45:15.105Z,82
2022-10-26T19:50:15.092Z,82
2022-10-26T19:55:15.099Z,84
2022-10-26T20:00:15.089Z,85
2022-10-26T20:05:15.106Z,85
2022-10-26T20:10:15.093Z,85
2022-10-26T20:15:15.098Z,85
2022-10-26T20:20:15.104Z,86
2022-10-26T20:25:15.093Z,86
2022-10-26T20:30:15.101Z,87
2022-10-26T20:35:15.098Z,87
2022-10-26T20:40:15.096Z,86
2022-10-26T20:45:15.100Z,84
2022-10-26T20:50:15.092Z,83
2022-10-26T20:55:15.088Z,83
2022-10-26T21:00:15.103Z,83
2022-10-26T21:05:15.104Z,83
2022-10-26T21:10:15.091Z,83
2022-10-26T21:15:15.107Z,83
2022-10-26T21:20:15.086Z,84
2022-10-26T21:25:15.090Z,84
2022-10-26T21:30:15.096Z,85
2022-10-26T21:35:15.093Z,85
2022-10-26T21:40:15.098Z,86
2022-10-26T21:45:15.091Z,86
2022-10-26T21:50:15.105Z,87
2022-10-26T21:55:15.107Z,87
2022-10-26T22:00:15.089Z,87
2022-10-26T22:05:15.114Z,87
2022-10-26T22:10:15.090Z,87
2022-10-26T22:15:15.107Z,87
2022-10-26T22:20:15.091Z,87
2022-10-26T22:25:15.127Z,87
2022-10-26T22:30:15.110Z,87
2022-10-26T22:35:28.875Z,87
2022-10-26T22:40:15.093Z,87
2022-10-26T22:45:15.088Z,87
2022-10-26T22:50:15.093Z,88
2022-10-26T22:55:15.435Z,88
2022-10-26T23:00:15.090Z,88
2022-10-26T23:05:15.096Z,88
2022-10-26T23:10:15.094Z,88
2022-10-26T23:15:15.095Z,88
2022-10-26T23:20:15.097Z,88
2022-10-26T23:25:15.089Z,88
2022-10-26T23:30:15.128Z,88
2022-10-26T23:35:15.091Z,89
2022-10-26T23:40:15.092Z,89
2022-10-26T23:45:15.090Z,89
2022-10-26T23:50:15.105Z,89
2022-10-26T23:55:15.102Z,89
